sensor_id;sensor_type;location;lat;lon;timestamp;P1;durP1;ratioP1;P2;durP2;ratioP2
9698;SDS011;10089;47.876;8.346;2023-06-26T00:01:57;6.15;;;4.38;;
9698;SDS011;10089;47.876;8.346;2023-06-26T00:04:22;5.68;;;4.60;;
9698;SDS011;10089;47.876;8.346;2023-06-26T00:06:48;5.30;;;4.40;;
9698;SDS011;10089;47.876;8.346;2023-06-26T00:09:13;5.10;;;4.60;;
9698;SDS011;10089;47.876;8.346;2023-06-26T00:11:39;5.32;;;4.45;;
9698;SDS011;10089;47.876;8.346;2023-06-26T00:14:05;6.07;;;4.90;;
9698;SDS011;10089;47.876;8.346;2023-06-26T00:16:31;7.25;;;5.10;;
9698;SDS011;10089;47.876;8.346;2023-06-26T00:18:57;5.72;;;4.50;;
9698;SDS011;10089;47.876;8.346;2023-06-26T00:21:24;7.47;;;4.78;;
9698;SDS011;10089;47.876;8.346;2023-06-26T00:23:50;6.70;;;4.80;;
9698;SDS011;10089;47.876;8.346;2023-06-26T00:26:16;5.95;;;4.82;;
9698;SDS011;10089;47.876;8.346;2023-06-26T00:28:42;5.75;;;4.78;;
9698;SDS011;10089;47.876;8.346;2023-06-26T00:31:07;5.63;;;4.70;;
9698;SDS011;10089;47.876;8.346;2023-06-26T00:33:33;5.68;;;4.45;;
9698;SDS011;10089;47.876;8.346;2023-06-26T00:35:58;5.82;;;4.75;;
9698;SDS011;10089;47.876;8.346;2023-06-26T00:38:24;6.88;;;5.28;;
9698;SDS011;10089;47.876;8.346;2023-06-26T00:40:50;5.60;;;5.00;;
9698;SDS011;10089;47.876;8.346;2023-06-26T00:43:15;6.93;;;5.43;;
9698;SDS011;10089;47.876;8.346;2023-06-26T00:45:41;5.53;;;4.45;;
9698;SDS011;10089;47.876;8.346;2023-06-26T00:48:07;5.65;;;4.88;;
9698;SDS011;10089;47.876;8.346;2023-06-26T00:50:36;6.75;;;4.63;;
9698;SDS011;10089;47.876;8.346;2023-06-26T00:53:02;6.88;;;5.03;;
9698;SDS011;10089;47.876;8.346;2023-06-26T00:55:28;7.78;;;5.28;;
9698;SDS011;10089;47.876;8.346;2023-06-26T00:57:54;6.00;;;5.10;;
9698;SDS011;10089;47.876;8.346;2023-06-26T01:00:21;6.22;;;5.00;;
9698;SDS011;10089;47.876;8.346;2023-06-26T01:02:46;5.38;;;4.57;;
9698;SDS011;10089;47.876;8.346;2023-06-26T01:05:12;5.07;;;4.30;;
9698;SDS011;10089;47.876;8.346;2023-06-26T01:07:46;5.82;;;4.70;;
9698;SDS011;10089;47.876;8.346;2023-06-26T01:10:16;5.47;;;4.82;;
9698;SDS011;10089;47.876;8.346;2023-06-26T01:12:42;4.90;;;4.18;;
9698;SDS011;10089;47.876;8.346;2023-06-26T01:15:08;6.70;;;4.82;;
9698;SDS011;10089;47.876;8.346;2023-06-26T01:17:34;5.53;;;4.65;;
9698;SDS011;10089;47.876;8.346;2023-06-26T01:20:03;5.45;;;4.75;;
9698;SDS011;10089;47.876;8.346;2023-06-26T01:27:54;6.03;;;4.95;;
9698;SDS011;10089;47.876;8.346;2023-06-26T01:30:21;5.82;;;4.18;;
9698;SDS011;10089;47.876;8.346;2023-06-26T01:32:47;5.35;;;4.70;;
9698;SDS011;10089;47.876;8.346;2023-06-26T01:35:14;5.63;;;4.75;;
9698;SDS011;10089;47.876;8.346;2023-06-26T01:37:40;4.90;;;4.40;;
9698;SDS011;10089;47.876;8.346;2023-06-26T01:40:06;5.90;;;4.93;;
9698;SDS011;10089;47.876;8.346;2023-06-26T01:42:33;7.57;;;4.70;;
9698;SDS011;10089;47.876;8.346;2023-06-26T01:45:01;8.98;;;5.13;;
9698;SDS011;10089;47.876;8.346;2023-06-26T01:47:40;6.05;;;5.45;;
9698;SDS011;10089;47.876;8.346;2023-06-26T01:50:17;6.70;;;4.60;;
9698;SDS011;10089;47.876;8.346;2023-06-26T01:57:54;5.90;;;4.72;;
9698;SDS011;10089;47.876;8.346;2023-06-26T02:00:22;4.97;;;4.47;;
9698;SDS011;10089;47.876;8.346;2023-06-26T02:02:49;5.88;;;4.95;;
9698;SDS011;10089;47.876;8.346;2023-06-26T02:05:14;6.07;;;4.85;;
9698;SDS011;10089;47.876;8.346;2023-06-26T02:07:40;6.45;;;5.28;;
9698;SDS011;10089;47.876;8.346;2023-06-26T02:10:06;7.78;;;5.20;;
9698;SDS011;10089;47.876;8.346;2023-06-26T02:12:32;6.10;;;4.90;;
9698;SDS011;10089;47.876;8.346;2023-06-26T02:14:59;8.80;;;5.47;;
9698;SDS011;10089;47.876;8.346;2023-06-26T02:17:24;6.15;;;4.93;;
9698;SDS011;10089;47.876;8.346;2023-06-26T02:19:50;5.20;;;4.53;;
9698;SDS011;10089;47.876;8.346;2023-06-26T02:22:16;5.65;;;4.43;;
9698;SDS011;10089;47.876;8.346;2023-06-26T02:24:42;8.15;;;4.80;;
9698;SDS011;10089;47.876;8.346;2023-06-26T02:27:08;7.43;;;4.93;;
9698;SDS011;10089;47.876;8.346;2023-06-26T02:29:34;4.75;;;4.25;;
9698;SDS011;10089;47.876;8.346;2023-06-26T02:32:00;5.85;;;5.07;;
9698;SDS011;10089;47.876;8.346;2023-06-26T02:34:25;5.03;;;4.15;;
9698;SDS011;10089;47.876;8.346;2023-06-26T02:36:51;7.07;;;4.38;;
9698;SDS011;10089;47.876;8.346;2023-06-26T02:39:19;5.40;;;4.45;;
9698;SDS011;10089;47.876;8.346;2023-06-26T02:41:45;7.15;;;4.82;;
9698;SDS011;10089;47.876;8.346;2023-06-26T02:44:11;6.13;;;5.15;;
9698;SDS011;10089;47.876;8.346;2023-06-26T02:46:37;4.63;;;4.10;;
9698;SDS011;10089;47.876;8.346;2023-06-26T02:49:03;4.75;;;4.25;;
9698;SDS011;10089;47.876;8.346;2023-06-26T02:51:29;4.80;;;4.30;;
9698;SDS011;10089;47.876;8.346;2023-06-26T02:53:56;4.85;;;4.18;;
9698;SDS011;10089;47.876;8.346;2023-06-26T02:56:21;6.57;;;4.70;;
9698;SDS011;10089;47.876;8.346;2023-06-26T02:58:47;8.73;;;4.47;;
9698;SDS011;10089;47.876;8.346;2023-06-26T03:01:12;4.93;;;4.43;;
9698;SDS011;10089;47.876;8.346;2023-06-26T03:03:38;5.60;;;4.68;;
9698;SDS011;10089;47.876;8.346;2023-06-26T03:06:06;5.30;;;4.30;;
9698;SDS011;10089;47.876;8.346;2023-06-26T03:08:32;5.95;;;4.10;;
9698;SDS011;10089;47.876;8.346;2023-06-26T03:11:00;5.55;;;4.63;;
9698;SDS011;10089;47.876;8.346;2023-06-26T03:13:25;8.20;;;4.82;;
9698;SDS011;10089;47.876;8.346;2023-06-26T03:15:51;5.35;;;4.30;;
9698;SDS011;10089;47.876;8.346;2023-06-26T03:18:17;6.35;;;4.38;;
9698;SDS011;10089;47.876;8.346;2023-06-26T03:20:42;6.55;;;4.35;;
9698;SDS011;10089;47.876;8.346;2023-06-26T03:23:08;4.72;;;4.13;;
9698;SDS011;10089;47.876;8.346;2023-06-26T03:25:33;5.63;;;4.57;;
9698;SDS011;10089;47.876;8.346;2023-06-26T03:27:59;5.32;;;4.47;;
9698;SDS011;10089;47.876;8.346;2023-06-26T03:30:24;5.00;;;4.25;;
9698;SDS011;10089;47.876;8.346;2023-06-26T03:32:50;5.60;;;4.65;;
9698;SDS011;10089;47.876;8.346;2023-06-26T03:35:16;5.35;;;4.38;;
9698;SDS011;10089;47.876;8.346;2023-06-26T03:37:41;5.65;;;4.47;;
9698;SDS011;10089;47.876;8.346;2023-06-26T03:40:07;4.32;;;3.92;;
9698;SDS011;10089;47.876;8.346;2023-06-26T03:42:33;5.68;;;4.43;;
9698;SDS011;10089;47.876;8.346;2023-06-26T03:44:59;5.43;;;4.28;;
9698;SDS011;10089;47.876;8.346;2023-06-26T03:47:24;5.25;;;4.32;;
9698;SDS011;10089;47.876;8.346;2023-06-26T03:49:50;7.55;;;4.57;;
9698;SDS011;10089;47.876;8.346;2023-06-26T03:52:16;6.30;;;4.57;;
9698;SDS011;10089;47.876;8.346;2023-06-26T03:54:41;6.88;;;4.63;;
9698;SDS011;10089;47.876;8.346;2023-06-26T03:57:07;4.82;;;4.05;;
9698;SDS011;10089;47.876;8.346;2023-06-26T03:59:32;6.18;;;4.68;;
9698;SDS011;10089;47.876;8.346;2023-06-26T04:01:58;8.13;;;5.07;;
9698;SDS011;10089;47.876;8.346;2023-06-26T04:04:24;4.80;;;4.13;;
9698;SDS011;10089;47.876;8.346;2023-06-26T04:06:49;6.93;;;4.25;;
9698;SDS011;10089;47.876;8.346;2023-06-26T04:09:15;5.50;;;4.22;;
9698;SDS011;10089;47.876;8.346;2023-06-26T04:11:42;6.65;;;4.72;;
9698;SDS011;10089;47.876;8.346;2023-06-26T04:14:07;9.05;;;4.50;;
9698;SDS011;10089;47.876;8.346;2023-06-26T04:16:33;6.93;;;4.57;;
9698;SDS011;10089;47.876;8.346;2023-06-26T04:18:58;5.63;;;4.50;;
9698;SDS011;10089;47.876;8.346;2023-06-26T04:21:24;7.80;;;4.75;;
9698;SDS011;10089;47.876;8.346;2023-06-26T04:23:50;7.22;;;4.63;;
9698;SDS011;10089;47.876;8.346;2023-06-26T04:26:16;6.80;;;4.60;;
9698;SDS011;10089;47.876;8.346;2023-06-26T04:28:41;5.80;;;4.90;;
9698;SDS011;10089;47.876;8.346;2023-06-26T04:31:07;6.38;;;4.82;;
9698;SDS011;10089;47.876;8.346;2023-06-26T04:33:34;5.07;;;4.07;;
9698;SDS011;10089;47.876;8.346;2023-06-26T04:36:01;7.50;;;4.63;;
9698;SDS011;10089;47.876;8.346;2023-06-26T04:38:28;9.40;;;5.65;;
9698;SDS011;10089;47.876;8.346;2023-06-26T04:40:55;5.22;;;4.72;;
9698;SDS011;10089;47.876;8.346;2023-06-26T04:43:20;6.20;;;4.97;;
9698;SDS011;10089;47.876;8.346;2023-06-26T04:45:46;6.90;;;5.10;;
9698;SDS011;10089;47.876;8.346;2023-06-26T04:48:12;6.65;;;4.88;;
9698;SDS011;10089;47.876;8.346;2023-06-26T04:50:37;5.30;;;4.50;;
9698;SDS011;10089;47.876;8.346;2023-06-26T04:53:03;5.53;;;4.88;;
9698;SDS011;10089;47.876;8.346;2023-06-26T04:55:28;7.63;;;5.07;;
9698;SDS011;10089;47.876;8.346;2023-06-26T04:57:55;5.82;;;4.47;;
9698;SDS011;10089;47.876;8.346;2023-06-26T05:00:21;6.10;;;5.07;;
9698;SDS011;10089;47.876;8.346;2023-06-26T05:02:47;9.13;;;5.10;;
9698;SDS011;10089;47.876;8.346;2023-06-26T05:05:13;6.32;;;4.82;;
9698;SDS011;10089;47.876;8.346;2023-06-26T05:07:40;9.48;;;5.20;;
9698;SDS011;10089;47.876;8.346;2023-06-26T05:10:06;5.63;;;4.65;;
9698;SDS011;10089;47.876;8.346;2023-06-26T05:12:33;5.97;;;5.07;;
9698;SDS011;10089;47.876;8.346;2023-06-26T05:14:58;6.57;;;4.90;;
9698;SDS011;10089;47.876;8.346;2023-06-26T05:17:24;6.13;;;4.90;;
9698;SDS011;10089;47.876;8.346;2023-06-26T05:19:49;5.80;;;5.07;;
9698;SDS011;10089;47.876;8.346;2023-06-26T05:22:15;8.35;;;5.13;;
9698;SDS011;10089;47.876;8.346;2023-06-26T05:24:42;6.13;;;5.15;;
9698;SDS011;10089;47.876;8.346;2023-06-26T05:27:11;7.75;;;5.30;;
9698;SDS011;10089;47.876;8.346;2023-06-26T05:29:44;5.45;;;4.55;;
9698;SDS011;10089;47.876;8.346;2023-06-26T05:32:10;5.93;;;4.75;;
9698;SDS011;10089;47.876;8.346;2023-06-26T05:34:38;5.80;;;4.93;;
9698;SDS011;10089;47.876;8.346;2023-06-26T05:37:04;5.13;;;4.25;;
9698;SDS011;10089;47.876;8.346;2023-06-26T05:39:31;6.20;;;4.63;;
9698;SDS011;10089;47.876;8.346;2023-06-26T05:41:57;5.15;;;4.18;;
9698;SDS011;10089;47.876;8.346;2023-06-26T05:44:23;5.35;;;4.85;;
9698;SDS011;10089;47.876;8.346;2023-06-26T05:46:49;5.63;;;4.68;;
9698;SDS011;10089;47.876;8.346;2023-06-26T05:49:14;5.13;;;4.57;;
9698;SDS011;10089;47.876;8.346;2023-06-26T05:51:40;6.40;;;4.30;;
9698;SDS011;10089;47.876;8.346;2023-06-26T05:54:06;7.88;;;4.93;;
9698;SDS011;10089;47.876;8.346;2023-06-26T05:56:32;4.78;;;4.25;;
9698;SDS011;10089;47.876;8.346;2023-06-26T05:58:58;4.97;;;4.47;;
9698;SDS011;10089;47.876;8.346;2023-06-26T06:01:23;5.18;;;4.68;;
9698;SDS011;10089;47.876;8.346;2023-06-26T06:03:49;7.75;;;4.88;;
9698;SDS011;10089;47.876;8.346;2023-06-26T06:06:15;5.07;;;4.18;;
9698;SDS011;10089;47.876;8.346;2023-06-26T06:08:41;5.82;;;4.63;;
9698;SDS011;10089;47.876;8.346;2023-06-26T06:11:06;5.40;;;4.70;;
9698;SDS011;10089;47.876;8.346;2023-06-26T06:13:32;4.88;;;4.28;;
9698;SDS011;10089;47.876;8.346;2023-06-26T06:15:58;5.07;;;4.43;;
9698;SDS011;10089;47.876;8.346;2023-06-26T06:18:23;5.30;;;4.78;;
9698;SDS011;10089;47.876;8.346;2023-06-26T06:20:49;5.72;;;4.50;;
9698;SDS011;10089;47.876;8.346;2023-06-26T06:23:14;11.30;;;5.18;;
9698;SDS011;10089;47.876;8.346;2023-06-26T06:25:40;5.05;;;4.55;;
9698;SDS011;10089;47.876;8.346;2023-06-26T06:28:05;6.35;;;4.57;;
9698;SDS011;10089;47.876;8.346;2023-06-26T06:30:31;9.88;;;5.00;;
9698;SDS011;10089;47.876;8.346;2023-06-26T06:32:57;6.07;;;5.18;;
9698;SDS011;10089;47.876;8.346;2023-06-26T06:35:23;5.43;;;4.93;;
9698;SDS011;10089;47.876;8.346;2023-06-26T06:37:49;6.53;;;4.78;;
9698;SDS011;10089;47.876;8.346;2023-06-26T06:40:14;5.85;;;5.22;;
9698;SDS011;10089;47.876;8.346;2023-06-26T06:42:40;5.28;;;4.63;;
9698;SDS011;10089;47.876;8.346;2023-06-26T06:45:05;6.45;;;4.90;;
9698;SDS011;10089;47.876;8.346;2023-06-26T06:47:32;5.90;;;5.05;;
9698;SDS011;10089;47.876;8.346;2023-06-26T06:49:58;5.97;;;4.82;;
9698;SDS011;10089;47.876;8.346;2023-06-26T06:52:24;6.63;;;4.40;;
9698;SDS011;10089;47.876;8.346;2023-06-26T06:54:53;5.50;;;4.75;;
9698;SDS011;10089;47.876;8.346;2023-06-26T06:57:20;8.90;;;4.85;;
9698;SDS011;10089;47.876;8.346;2023-06-26T06:59:46;5.57;;;5.05;;
9698;SDS011;10089;47.876;8.346;2023-06-26T07:02:13;6.15;;;4.50;;
9698;SDS011;10089;47.876;8.346;2023-06-26T07:04:40;7.30;;;5.10;;
9698;SDS011;10089;47.876;8.346;2023-06-26T07:07:06;6.05;;;4.97;;
9698;SDS011;10089;47.876;8.346;2023-06-26T07:09:31;7.30;;;4.70;;
9698;SDS011;10089;47.876;8.346;2023-06-26T07:11:57;5.25;;;4.70;;
9698;SDS011;10089;47.876;8.346;2023-06-26T07:14:22;5.25;;;4.72;;
9698;SDS011;10089;47.876;8.346;2023-06-26T07:16:48;7.88;;;5.55;;
9698;SDS011;10089;47.876;8.346;2023-06-26T07:19:14;6.43;;;5.18;;
9698;SDS011;10089;47.876;8.346;2023-06-26T07:21:39;6.65;;;4.63;;
9698;SDS011;10089;47.876;8.346;2023-06-26T07:24:06;7.53;;;4.57;;
9698;SDS011;10089;47.876;8.346;2023-06-26T07:26:32;5.60;;;5.07;;
9698;SDS011;10089;47.876;8.346;2023-06-26T07:28:58;5.57;;;5.03;;
9698;SDS011;10089;47.876;8.346;2023-06-26T07:31:23;8.20;;;5.05;;
9698;SDS011;10089;47.876;8.346;2023-06-26T07:33:49;5.45;;;4.95;;
9698;SDS011;10089;47.876;8.346;2023-06-26T07:36:14;6.32;;;5.63;;
9698;SDS011;10089;47.876;8.346;2023-06-26T07:38:40;8.80;;;5.53;;
9698;SDS011;10089;47.876;8.346;2023-06-26T07:41:05;6.10;;;5.30;;
9698;SDS011;10089;47.876;8.346;2023-06-26T07:43:31;6.63;;;5.57;;
9698;SDS011;10089;47.876;8.346;2023-06-26T07:45:57;6.22;;;5.13;;
9698;SDS011;10089;47.876;8.346;2023-06-26T07:48:25;7.20;;;5.32;;
9698;SDS011;10089;47.876;8.346;2023-06-26T07:50:51;5.97;;;5.10;;
9698;SDS011;10089;47.876;8.346;2023-06-26T07:53:16;5.20;;;4.70;;
9698;SDS011;10089;47.876;8.346;2023-06-26T07:55:42;6.82;;;4.15;;
9698;SDS011;10089;47.876;8.346;2023-06-26T07:58:08;5.05;;;4.50;;
9698;SDS011;10089;47.876;8.346;2023-06-26T08:00:34;6.05;;;4.28;;
9698;SDS011;10089;47.876;8.346;2023-06-26T08:03:00;4.95;;;4.38;;
9698;SDS011;10089;47.876;8.346;2023-06-26T08:05:26;4.85;;;4.15;;
9698;SDS011;10089;47.876;8.346;2023-06-26T08:07:51;4.97;;;4.53;;
9698;SDS011;10089;47.876;8.346;2023-06-26T08:10:17;4.65;;;4.07;;
9698;SDS011;10089;47.876;8.346;2023-06-26T08:12:43;4.45;;;4.05;;
9698;SDS011;10089;47.876;8.346;2023-06-26T08:15:10;4.30;;;3.90;;
9698;SDS011;10089;47.876;8.346;2023-06-26T08:17:36;4.72;;;4.22;;
9698;SDS011;10089;47.876;8.346;2023-06-26T08:20:03;4.57;;;3.95;;
9698;SDS011;10089;47.876;8.346;2023-06-26T08:22:29;4.95;;;4.40;;
9698;SDS011;10089;47.876;8.346;2023-06-26T08:24:55;5.82;;;4.05;;
9698;SDS011;10089;47.876;8.346;2023-06-26T08:27:20;4.75;;;4.22;;
9698;SDS011;10089;47.876;8.346;2023-06-26T08:29:46;4.55;;;4.15;;
9698;SDS011;10089;47.876;8.346;2023-06-26T08:32:11;6.85;;;4.22;;
9698;SDS011;10089;47.876;8.346;2023-06-26T08:34:37;5.47;;;4.25;;
9698;SDS011;10089;47.876;8.346;2023-06-26T08:37:03;5.53;;;4.30;;
9698;SDS011;10089;47.876;8.346;2023-06-26T08:39:28;4.72;;;4.30;;
9698;SDS011;10089;47.876;8.346;2023-06-26T08:41:54;4.80;;;4.25;;
9698;SDS011;10089;47.876;8.346;2023-06-26T08:44:20;5.32;;;4.70;;
9698;SDS011;10089;47.876;8.346;2023-06-26T08:46:49;5.00;;;4.22;;
9698;SDS011;10089;47.876;8.346;2023-06-26T08:49:25;5.30;;;4.20;;
9698;SDS011;10089;47.876;8.346;2023-06-26T08:51:57;4.93;;;4.40;;
9698;SDS011;10089;47.876;8.346;2023-06-26T08:54:28;4.53;;;4.07;;
9698;SDS011;10089;47.876;8.346;2023-06-26T08:56:59;4.95;;;4.10;;
9698;SDS011;10089;47.876;8.346;2023-06-26T08:59:25;4.80;;;4.30;;
9698;SDS011;10089;47.876;8.346;2023-06-26T09:01:51;5.20;;;4.50;;
9698;SDS011;10089;47.876;8.346;2023-06-26T09:04:17;5.80;;;4.65;;
9698;SDS011;10089;47.876;8.346;2023-06-26T09:06:43;5.65;;;4.20;;
9698;SDS011;10089;47.876;8.346;2023-06-26T09:09:09;6.47;;;4.82;;
9698;SDS011;10089;47.876;8.346;2023-06-26T09:11:35;5.68;;;4.65;;
9698;SDS011;10089;47.876;8.346;2023-06-26T09:14:01;5.07;;;4.60;;
9698;SDS011;10089;47.876;8.346;2023-06-26T09:16:30;5.03;;;4.53;;
9698;SDS011;10089;47.876;8.346;2023-06-26T09:18:55;5.82;;;4.30;;
9698;SDS011;10089;47.876;8.346;2023-06-26T09:21:21;4.93;;;4.43;;
9698;SDS011;10089;47.876;8.346;2023-06-26T09:23:49;6.63;;;4.50;;
9698;SDS011;10089;47.876;8.346;2023-06-26T09:26:15;5.20;;;3.92;;
9698;SDS011;10089;47.876;8.346;2023-06-26T09:28:41;5.07;;;4.55;;
9698;SDS011;10089;47.876;8.346;2023-06-26T09:31:08;4.53;;;4.13;;
9698;SDS011;10089;47.876;8.346;2023-06-26T09:33:35;5.70;;;4.70;;
9698;SDS011;10089;47.876;8.346;2023-06-26T09:36:08;4.90;;;4.40;;
9698;SDS011;10089;47.876;8.346;2023-06-26T09:38:44;5.40;;;4.72;;
9698;SDS011;10089;47.876;8.346;2023-06-26T09:41:09;5.10;;;4.60;;
9698;SDS011;10089;47.876;8.346;2023-06-26T09:43:35;5.45;;;4.22;;
9698;SDS011;10089;47.876;8.346;2023-06-26T09:46:21;5.93;;;4.70;;
9698;SDS011;10089;47.876;8.346;2023-06-26T09:48:57;4.85;;;4.43;;
9698;SDS011;10089;47.876;8.346;2023-06-26T09:51:26;6.88;;;5.07;;
9698;SDS011;10089;47.876;8.346;2023-06-26T09:53:55;5.75;;;4.50;;
9698;SDS011;10089;47.876;8.346;2023-06-26T09:56:20;6.10;;;4.97;;
9698;SDS011;10089;47.876;8.346;2023-06-26T09:58:47;5.55;;;4.75;;
9698;SDS011;10089;47.876;8.346;2023-06-26T10:01:13;5.85;;;5.00;;
9698;SDS011;10089;47.876;8.346;2023-06-26T10:03:39;6.70;;;4.97;;
9698;SDS011;10089;47.876;8.346;2023-06-26T10:06:04;7.18;;;5.25;;
9698;SDS011;10089;47.876;8.346;2023-06-26T10:08:31;6.13;;;4.78;;
9698;SDS011;10089;47.876;8.346;2023-06-26T10:10:59;6.45;;;4.80;;
9698;SDS011;10089;47.876;8.346;2023-06-26T10:13:27;5.63;;;4.95;;
9698;SDS011;10089;47.876;8.346;2023-06-26T10:16:00;5.15;;;4.60;;
9698;SDS011;10089;47.876;8.346;2023-06-26T10:18:26;5.18;;;4.68;;
9698;SDS011;10089;47.876;8.346;2023-06-26T10:20:56;5.43;;;4.93;;
9698;SDS011;10089;47.876;8.346;2023-06-26T10:23:23;5.10;;;4.60;;
9698;SDS011;10089;47.876;8.346;2023-06-26T10:25:51;5.43;;;4.93;;
9698;SDS011;10089;47.876;8.346;2023-06-26T10:28:20;6.80;;;4.88;;
9698;SDS011;10089;47.876;8.346;2023-06-26T10:30:48;7.10;;;5.13;;
9698;SDS011;10089;47.876;8.346;2023-06-26T10:33:15;5.85;;;5.25;;
9698;SDS011;10089;47.876;8.346;2023-06-26T10:35:42;6.30;;;4.88;;
9698;SDS011;10089;47.876;8.346;2023-06-26T10:38:09;5.35;;;4.85;;
9698;SDS011;10089;47.876;8.346;2023-06-26T10:40:45;5.30;;;4.80;;
9698;SDS011;10089;47.876;8.346;2023-06-26T10:43:13;6.70;;;4.68;;
9698;SDS011;10089;47.876;8.346;2023-06-26T10:45:49;9.32;;;4.93;;
9698;SDS011;10089;47.876;8.346;2023-06-26T10:48:19;6.55;;;5.75;;
9698;SDS011;10089;47.876;8.346;2023-06-26T10:50:47;7.10;;;4.97;;
9698;SDS011;10089;47.876;8.346;2023-06-26T10:56:00;6.88;;;5.65;;
9698;SDS011;10089;47.876;8.346;2023-06-26T10:58:47;7.50;;;5.75;;
9698;SDS011;10089;47.876;8.346;2023-06-26T11:03:48;6.55;;;5.15;;
9698;SDS011;10089;47.876;8.346;2023-06-26T11:06:23;6.05;;;5.30;;
9698;SDS011;10089;47.876;8.346;2023-06-26T11:08:49;6.00;;;5.28;;
9698;SDS011;10089;47.876;8.346;2023-06-26T11:11:18;6.78;;;6.07;;
9698;SDS011;10089;47.876;8.346;2023-06-26T11:13:45;7.53;;;5.53;;
9698;SDS011;10089;47.876;8.346;2023-06-26T11:16:11;7.43;;;6.03;;
9698;SDS011;10089;47.876;8.346;2023-06-26T11:18:38;6.20;;;5.60;;
9698;SDS011;10089;47.876;8.346;2023-06-26T11:21:13;8.43;;;5.78;;
9698;SDS011;10089;47.876;8.346;2023-06-26T11:23:39;7.60;;;6.18;;
9698;SDS011;10089;47.876;8.346;2023-06-26T11:26:18;7.72;;;6.38;;
9698;SDS011;10089;47.876;8.346;2023-06-26T11:28:54;8.07;;;5.90;;
9698;SDS011;10089;47.876;8.346;2023-06-26T11:31:27;7.20;;;6.50;;
9698;SDS011;10089;47.876;8.346;2023-06-26T11:34:01;8.10;;;5.97;;
9698;SDS011;10089;47.876;8.346;2023-06-26T11:36:28;8.68;;;6.10;;
9698;SDS011;10089;47.876;8.346;2023-06-26T11:38:59;7.10;;;6.00;;
9698;SDS011;10089;47.876;8.346;2023-06-26T11:41:34;6.63;;;5.93;;
9698;SDS011;10089;47.876;8.346;2023-06-26T11:44:01;9.68;;;6.63;;
9698;SDS011;10089;47.876;8.346;2023-06-26T11:46:27;9.20;;;6.03;;
9698;SDS011;10089;47.876;8.346;2023-06-26T11:48:53;5.93;;;5.32;;
9698;SDS011;10089;47.876;8.346;2023-06-26T11:51:19;7.80;;;6.30;;
9698;SDS011;10089;47.876;8.346;2023-06-26T11:53:45;6.65;;;5.93;;
9698;SDS011;10089;47.876;8.346;2023-06-26T11:56:11;7.38;;;6.20;;
9698;SDS011;10089;47.876;8.346;2023-06-26T11:58:58;14.32;;;6.55;;
9698;SDS011;10089;47.876;8.346;2023-06-26T12:01:26;8.32;;;6.55;;
9698;SDS011;10089;47.876;8.346;2023-06-26T12:03:57;6.68;;;6.03;;
9698;SDS011;10089;47.876;8.346;2023-06-26T12:06:25;7.13;;;5.85;;
9698;SDS011;10089;47.876;8.346;2023-06-26T12:08:51;6.97;;;6.28;;
9698;SDS011;10089;47.876;8.346;2023-06-26T12:11:17;6.65;;;6.05;;
9698;SDS011;10089;47.876;8.346;2023-06-26T12:13:44;6.63;;;5.65;;
9698;SDS011;10089;47.876;8.346;2023-06-26T12:16:11;9.02;;;6.53;;
9698;SDS011;10089;47.876;8.346;2023-06-26T12:18:37;7.45;;;6.35;;
9698;SDS011;10089;47.876;8.346;2023-06-26T12:21:03;8.38;;;6.32;;
9698;SDS011;10089;47.876;8.346;2023-06-26T12:23:38;8.52;;;5.88;;
9698;SDS011;10089;47.876;8.346;2023-06-26T12:26:20;7.25;;;6.47;;
9698;SDS011;10089;47.876;8.346;2023-06-26T12:28:46;8.32;;;6.20;;
9698;SDS011;10089;47.876;8.346;2023-06-26T12:31:15;7.38;;;6.60;;
9698;SDS011;10089;47.876;8.346;2023-06-26T12:33:44;7.10;;;6.13;;
9698;SDS011;10089;47.876;8.346;2023-06-26T12:36:13;6.85;;;6.18;;
9698;SDS011;10089;47.876;8.346;2023-06-26T12:38:40;7.93;;;6.03;;
9698;SDS011;10089;47.876;8.346;2023-06-26T12:41:11;6.95;;;6.03;;
9698;SDS011;10089;47.876;8.346;2023-06-26T12:43:38;10.40;;;6.95;;
9698;SDS011;10089;47.876;8.346;2023-06-26T12:46:05;6.45;;;5.80;;
9698;SDS011;10089;47.876;8.346;2023-06-26T12:48:40;7.38;;;6.30;;
9698;SDS011;10089;47.876;8.346;2023-06-26T12:51:12;7.07;;;6.38;;
9698;SDS011;10089;47.876;8.346;2023-06-26T12:53:39;7.20;;;6.18;;
9698;SDS011;10089;47.876;8.346;2023-06-26T12:56:05;8.00;;;6.18;;
9698;SDS011;10089;47.876;8.346;2023-06-26T12:58:32;9.40;;;6.35;;
9698;SDS011;10089;47.876;8.346;2023-06-26T13:00:58;7.07;;;6.38;;
9698;SDS011;10089;47.876;8.346;2023-06-26T13:03:24;9.68;;;6.65;;
9698;SDS011;10089;47.876;8.346;2023-06-26T13:05:49;8.02;;;5.90;;
9698;SDS011;10089;47.876;8.346;2023-06-26T13:08:16;8.93;;;6.60;;
9698;SDS011;10089;47.876;8.346;2023-06-26T13:10:44;10.80;;;6.22;;
9698;SDS011;10089;47.876;8.346;2023-06-26T13:13:10;10.52;;;6.88;;
9698;SDS011;10089;47.876;8.346;2023-06-26T13:15:36;7.82;;;6.43;;
9698;SDS011;10089;47.876;8.346;2023-06-26T13:18:02;8.45;;;6.60;;
9698;SDS011;10089;47.876;8.346;2023-06-26T13:20:28;7.43;;;6.43;;
9698;SDS011;10089;47.876;8.346;2023-06-26T13:22:54;7.88;;;6.10;;
9698;SDS011;10089;47.876;8.346;2023-06-26T13:25:20;8.50;;;6.07;;
9698;SDS011;10089;47.876;8.346;2023-06-26T13:27:46;9.50;;;6.72;;
9698;SDS011;10089;47.876;8.346;2023-06-26T13:30:12;9.48;;;6.25;;
9698;SDS011;10089;47.876;8.346;2023-06-26T13:32:38;7.15;;;6.45;;
9698;SDS011;10089;47.876;8.346;2023-06-26T13:35:04;7.22;;;6.53;;
9698;SDS011;10089;47.876;8.346;2023-06-26T13:37:31;7.18;;;6.45;;
9698;SDS011;10089;47.876;8.346;2023-06-26T13:39:56;8.10;;;6.68;;
9698;SDS011;10089;47.876;8.346;2023-06-26T13:42:24;7.18;;;6.45;;
9698;SDS011;10089;47.876;8.346;2023-06-26T13:44:50;8.40;;;7.03;;
9698;SDS011;10089;47.876;8.346;2023-06-26T13:47:15;9.52;;;6.70;;
9698;SDS011;10089;47.876;8.346;2023-06-26T13:49:41;6.30;;;5.70;;
9698;SDS011;10089;47.876;8.346;2023-06-26T13:52:07;7.88;;;7.07;;
9698;SDS011;10089;47.876;8.346;2023-06-26T13:54:36;11.23;;;6.88;;
9698;SDS011;10089;47.876;8.346;2023-06-26T13:57:04;7.70;;;6.75;;
9698;SDS011;10089;47.876;8.346;2023-06-26T13:59:31;10.23;;;7.00;;
9698;SDS011;10089;47.876;8.346;2023-06-26T14:01:57;8.55;;;7.03;;
9698;SDS011;10089;47.876;8.346;2023-06-26T14:04:22;7.07;;;6.32;;
9698;SDS011;10089;47.876;8.346;2023-06-26T14:06:48;9.82;;;6.57;;
9698;SDS011;10089;47.876;8.346;2023-06-26T14:09:13;7.72;;;6.65;;
9698;SDS011;10089;47.876;8.346;2023-06-26T14:11:39;7.95;;;7.15;;
9698;SDS011;10089;47.876;8.346;2023-06-26T14:14:05;13.88;;;6.68;;
9698;SDS011;10089;47.876;8.346;2023-06-26T14:16:32;7.10;;;6.40;;
9698;SDS011;10089;47.876;8.346;2023-06-26T14:18:57;8.98;;;6.00;;
9698;SDS011;10089;47.876;8.346;2023-06-26T14:21:23;6.53;;;5.75;;
9698;SDS011;10089;47.876;8.346;2023-06-26T14:23:49;12.02;;;7.30;;
9698;SDS011;10089;47.876;8.346;2023-06-26T14:26:14;8.85;;;6.25;;
9698;SDS011;10089;47.876;8.346;2023-06-26T14:28:40;10.00;;;6.25;;
9698;SDS011;10089;47.876;8.346;2023-06-26T14:31:06;7.80;;;6.50;;
9698;SDS011;10089;47.876;8.346;2023-06-26T14:33:31;6.15;;;5.55;;
9698;SDS011;10089;47.876;8.346;2023-06-26T14:35:57;7.43;;;6.05;;
9698;SDS011;10089;47.876;8.346;2023-06-26T14:38:23;9.63;;;6.07;;
9698;SDS011;10089;47.876;8.346;2023-06-26T14:40:48;6.72;;;5.30;;
9698;SDS011;10089;47.876;8.346;2023-06-26T14:43:14;8.00;;;5.72;;
9698;SDS011;10089;47.876;8.346;2023-06-26T14:45:39;7.18;;;6.07;;
9698;SDS011;10089;47.876;8.346;2023-06-26T14:48:05;5.78;;;5.18;;
9698;SDS011;10089;47.876;8.346;2023-06-26T14:50:30;6.53;;;5.55;;
9698;SDS011;10089;47.876;8.346;2023-06-26T14:52:56;7.68;;;5.57;;
9698;SDS011;10089;47.876;8.346;2023-06-26T14:55:22;6.05;;;5.38;;
9698;SDS011;10089;47.876;8.346;2023-06-26T14:57:47;6.10;;;5.32;;
9698;SDS011;10089;47.876;8.346;2023-06-26T15:00:13;8.48;;;5.72;;
9698;SDS011;10089;47.876;8.346;2023-06-26T15:02:39;7.75;;;5.25;;
9698;SDS011;10089;47.876;8.346;2023-06-26T15:05:06;9.10;;;5.45;;
9698;SDS011;10089;47.876;8.346;2023-06-26T15:07:32;7.97;;;5.80;;
9698;SDS011;10089;47.876;8.346;2023-06-26T15:09:58;6.88;;;5.00;;
9698;SDS011;10089;47.876;8.346;2023-06-26T15:12:24;6.90;;;5.72;;
9698;SDS011;10089;47.876;8.346;2023-06-26T15:14:49;6.05;;;5.07;;